sensor_id;sensor_type;location;lat;lon;timestamp;temperature;humidity
33994;DHT22;20673;48.980;8.138;2023-05-07T00:00:53;13.10;99.90
33994;DHT22;20673;48.980;8.138;2023-05-07T00:03:19;13.20;99.90
33994;DHT22;20673;48.980;8.138;2023-05-07T00:05:45;13.30;99.90
33994;DHT22;20673;48.980;8.138;2023-05-07T00:08:12;13.40;99.90
33994;DHT22;20673;48.980;8.138;2023-05-07T00:10:38;13.50;99.90
33994;DHT22;20673;48.980;8.138;2023-05-07T00:13:04;13.50;99.90
33994;DHT22;20673;48.980;8.138;2023-05-07T00:15:30;13.60;99.90
33994;DHT22;20673;48.980;8.138;2023-05-07T00:17:56;13.60;99.90
33994;DHT22;20673;48.980;8.138;2023-05-07T00:20:25;13.60;99.90
33994;DHT22;20673;48.980;8.138;2023-05-07T00:22:51;13.60;99.90
33994;DHT22;20673;48.980;8.138;2023-05-07T00:25:17;13.60;99.90
33994;DHT22;20673;48.980;8.138;2023-05-07T00:27:45;13.60;99.90
33994;DHT22;20673;48.980;8.138;2023-05-07T00:30:12;13.50;99.90
33994;DHT22;20673;48.980;8.138;2023-05-07T00:32:38;13.60;99.90
33994;DHT22;20673;48.980;8.138;2023-05-07T00:35:05;13.60;99.90
33994;DHT22;20673;48.980;8.138;2023-05-07T00:37:32;13.60;99.90
33994;DHT22;20673;48.980;8.138;2023-05-07T00:39:59;13.60;99.90
33994;DHT22;20673;48.980;8.138;2023-05-07T00:42:25;13.60;99.90
33994;DHT22;20673;48.980;8.138;2023-05-07T00:44:51;13.60;99.90
33994;DHT22;20673;48.980;8.138;2023-05-07T00:47:17;13.60;99.90
33994;DHT22;20673;48.980;8.138;2023-05-07T00:49:44;13.50;99.90
33994;DHT22;20673;48.980;8.138;2023-05-07T00:52:13;13.50;99.90
33994;DHT22;20673;48.980;8.138;2023-05-07T00:54:42;13.60;99.90
33994;DHT22;20673;48.980;8.138;2023-05-07T00:57:09;13.60;99.90
33994;DHT22;20673;48.980;8.138;2023-05-07T00:59:39;13.60;99.90
33994;DHT22;20673;48.980;8.138;2023-05-07T01:02:06;13.60;99.90
33994;DHT22;20673;48.980;8.138;2023-05-07T01:04:33;13.50;99.90
33994;DHT22;20673;48.980;8.138;2023-05-07T01:07:01;13.50;99.90
33994;DHT22;20673;48.980;8.138;2023-05-07T01:09:28;13.50;99.90
33994;DHT22;20673;48.980;8.138;2023-05-07T01:11:57;13.40;99.90
33994;DHT22;20673;48.980;8.138;2023-05-07T01:14:25;13.40;99.90
33994;DHT22;20673;48.980;8.138;2023-05-07T01:16:53;13.40;99.90
33994;DHT22;20673;48.980;8.138;2023-05-07T01:19:19;13.40;99.90
33994;DHT22;20673;48.980;8.138;2023-05-07T01:21:47;13.40;99.90
33994;DHT22;20673;48.980;8.138;2023-05-07T01:24:15;13.50;99.90
33994;DHT22;20673;48.980;8.138;2023-05-07T01:26:43;13.60;99.90
33994;DHT22;20673;48.980;8.138;2023-05-07T01:29:12;13.60;99.90
33994;DHT22;20673;48.980;8.138;2023-05-07T01:31:39;13.60;99.90
33994;DHT22;20673;48.980;8.138;2023-05-07T01:34:09;13.60;99.90
33994;DHT22;20673;48.980;8.138;2023-05-07T01:36:39;13.60;99.90
33994;DHT22;20673;48.980;8.138;2023-05-07T01:39:10;13.60;99.90
33994;DHT22;20673;48.980;8.138;2023-05-07T01:41:37;13.60;99.90
33994;DHT22;20673;48.980;8.138;2023-05-07T01:44:03;13.60;99.90
33994;DHT22;20673;48.980;8.138;2023-05-07T01:46:32;13.50;99.90
33994;DHT22;20673;48.980;8.138;2023-05-07T01:49:00;13.50;99.90
33994;DHT22;20673;48.980;8.138;2023-05-07T01:51:29;13.50;99.90
33994;DHT22;20673;48.980;8.138;2023-05-07T01:53:56;13.50;99.90
33994;DHT22;20673;48.980;8.138;2023-05-07T01:56:25;13.50;99.90
33994;DHT22;20673;48.980;8.138;2023-05-07T01:58:52;13.40;99.90
33994;DHT22;20673;48.980;8.138;2023-05-07T02:01:18;13.40;99.90
33994;DHT22;20673;48.980;8.138;2023-05-07T02:03:45;13.40;99.90
33994;DHT22;20673;48.980;8.138;2023-05-07T02:06:13;13.30;99.90
33994;DHT22;20673;48.980;8.138;2023-05-07T02:08:40;13.30;99.90
33994;DHT22;20673;48.980;8.138;2023-05-07T02:11:06;13.30;99.90
33994;DHT22;20673;48.980;8.138;2023-05-07T02:13:33;13.30;99.90
33994;DHT22;20673;48.980;8.138;2023-05-07T02:16:02;13.20;99.90
33994;DHT22;20673;48.980;8.138;2023-05-07T02:18:29;13.20;99.90
33994;DHT22;20673;48.980;8.138;2023-05-07T02:20:55;13.20;99.90
33994;DHT22;20673;48.980;8.138;2023-05-07T02:23:21;13.10;99.90
33994;DHT22;20673;48.980;8.138;2023-05-07T02:25:48;13.10;99.90
33994;DHT22;20673;48.980;8.138;2023-05-07T02:28:14;13.10;99.90
33994;DHT22;20673;48.980;8.138;2023-05-07T02:30:41;13.10;99.90
33994;DHT22;20673;48.980;8.138;2023-05-07T02:33:07;13.10;99.90
33994;DHT22;20673;48.980;8.138;2023-05-07T02:35:34;13.00;99.90
33994;DHT22;20673;48.980;8.138;2023-05-07T02:38:00;12.90;99.90
33994;DHT22;20673;48.980;8.138;2023-05-07T02:40:26;12.90;99.90
33994;DHT22;20673;48.980;8.138;2023-05-07T02:42:53;12.80;99.90
33994;DHT22;20673;48.980;8.138;2023-05-07T02:45:19;12.80;99.90
33994;DHT22;20673;48.980;8.138;2023-05-07T02:47:45;12.80;99.90
33994;DHT22;20673;48.980;8.138;2023-05-07T02:50:12;12.70;99.90
33994;DHT22;20673;48.980;8.138;2023-05-07T02:52:38;12.80;99.90
33994;DHT22;20673;48.980;8.138;2023-05-07T02:55:05;12.80;99.90
33994;DHT22;20673;48.980;8.138;2023-05-07T02:57:32;12.80;99.90
33994;DHT22;20673;48.980;8.138;2023-05-07T02:59:58;12.80;99.90
33994;DHT22;20673;48.980;8.138;2023-05-07T03:02:24;12.80;99.90
33994;DHT22;20673;48.980;8.138;2023-05-07T03:04:51;12.80;99.90
33994;DHT22;20673;48.980;8.138;2023-05-07T03:07:17;12.70;99.90
33994;DHT22;20673;48.980;8.138;2023-05-07T03:09:43;12.80;99.90
33994;DHT22;20673;48.980;8.138;2023-05-07T03:12:09;12.70;99.90
33994;DHT22;20673;48.980;8.138;2023-05-07T03:14:35;12.60;99.90
33994;DHT22;20673;48.980;8.138;2023-05-07T03:17:01;12.60;99.90
33994;DHT22;20673;48.980;8.138;2023-05-07T03:19:28;12.50;99.90
33994;DHT22;20673;48.980;8.138;2023-05-07T03:21:55;12.60;99.90
33994;DHT22;20673;48.980;8.138;2023-05-07T03:24:22;12.60;99.90
33994;DHT22;20673;48.980;8.138;2023-05-07T03:26:48;12.50;99.90
33994;DHT22;20673;48.980;8.138;2023-05-07T03:29:15;12.50;99.90
33994;DHT22;20673;48.980;8.138;2023-05-07T03:31:41;12.40;99.90
33994;DHT22;20673;48.980;8.138;2023-05-07T03:34:07;12.30;99.90
33994;DHT22;20673;48.980;8.138;2023-05-07T03:36:33;12.30;99.90
33994;DHT22;20673;48.980;8.138;2023-05-07T03:39:00;12.40;99.90
33994;DHT22;20673;48.980;8.138;2023-05-07T03:41:26;12.50;99.90
33994;DHT22;20673;48.980;8.138;2023-05-07T03:43:52;12.40;99.90
33994;DHT22;20673;48.980;8.138;2023-05-07T03:46:18;12.30;99.90
33994;DHT22;20673;48.980;8.138;2023-05-07T03:48:45;12.10;99.90
33994;DHT22;20673;48.980;8.138;2023-05-07T03:51:11;12.00;99.90
33994;DHT22;20673;48.980;8.138;2023-05-07T03:53:37;11.90;99.90
33994;DHT22;20673;48.980;8.138;2023-05-07T03:56:03;11.90;99.90
33994;DHT22;20673;48.980;8.138;2023-05-07T03:58:30;11.80;99.90
33994;DHT22;20673;48.980;8.138;2023-05-07T04:00:56;11.80;99.90
33994;DHT22;20673;48.980;8.138;2023-05-07T04:03:22;11.80;99.90
33994;DHT22;20673;48.980;8.138;2023-05-07T04:05:48;11.70;99.90
33994;DHT22;20673;48.980;8.138;2023-05-07T04:08:14;11.80;99.90
33994;DHT22;20673;48.980;8.138;2023-05-07T04:10:40;11.70;99.90
33994;DHT22;20673;48.980;8.138;2023-05-07T04:13:07;11.70;99.90
33994;DHT22;20673;48.980;8.138;2023-05-07T04:15:33;11.70;99.90
33994;DHT22;20673;48.980;8.138;2023-05-07T04:17:59;11.60;99.90
33994;DHT22;20673;48.980;8.138;2023-05-07T04:20:25;11.60;99.90
33994;DHT22;20673;48.980;8.138;2023-05-07T04:22:51;11.70;99.90
33994;DHT22;20673;48.980;8.138;2023-05-07T04:25:18;11.80;99.90
33994;DHT22;20673;48.980;8.138;2023-05-07T04:27:44;11.80;99.90
33994;DHT22;20673;48.980;8.138;2023-05-07T04:30:11;11.80;99.90
33994;DHT22;20673;48.980;8.138;2023-05-07T04:32:38;11.80;99.90
33994;DHT22;20673;48.980;8.138;2023-05-07T04:35:05;11.80;99.90
33994;DHT22;20673;48.980;8.138;2023-05-07T04:37:32;11.90;99.90
33994;DHT22;20673;48.980;8.138;2023-05-07T04:39:58;11.90;99.90
33994;DHT22;20673;48.980;8.138;2023-05-07T04:42:25;11.90;99.90
33994;DHT22;20673;48.980;8.138;2023-05-07T04:44:53;12.00;99.90
33994;DHT22;20673;48.980;8.138;2023-05-07T04:47:20;12.00;99.90
33994;DHT22;20673;48.980;8.138;2023-05-07T04:49:46;12.10;99.90
33994;DHT22;20673;48.980;8.138;2023-05-07T04:52:12;12.20;99.90
33994;DHT22;20673;48.980;8.138;2023-05-07T04:54:39;12.30;99.90
33994;DHT22;20673;48.980;8.138;2023-05-07T04:57:05;12.40;99.90
33994;DHT22;20673;48.980;8.138;2023-05-07T04:59:32;12.50;99.90
33994;DHT22;20673;48.980;8.138;2023-05-07T05:01:58;12.60;99.90
33994;DHT22;20673;48.980;8.138;2023-05-07T05:04:25;12.70;99.90
33994;DHT22;20673;48.980;8.138;2023-05-07T05:06:51;12.80;99.90
33994;DHT22;20673;48.980;8.138;2023-05-07T05:09:17;12.90;99.90
33994;DHT22;20673;48.980;8.138;2023-05-07T05:11:44;12.90;99.90
33994;DHT22;20673;48.980;8.138;2023-05-07T05:14:10;13.10;99.90
33994;DHT22;20673;48.980;8.138;2023-05-07T05:16:36;13.10;99.90
33994;DHT22;20673;48.980;8.138;2023-05-07T05:19:03;13.20;99.90
33994;DHT22;20673;48.980;8.138;2023-05-07T05:21:29;13.30;99.90
33994;DHT22;20673;48.980;8.138;2023-05-07T05:23:55;13.40;99.90
33994;DHT22;20673;48.980;8.138;2023-05-07T05:26:21;13.50;99.90
33994;DHT22;20673;48.980;8.138;2023-05-07T05:28:48;13.60;99.90
33994;DHT22;20673;48.980;8.138;2023-05-07T05:31:15;13.70;99.90
33994;DHT22;20673;48.980;8.138;2023-05-07T05:33:42;13.80;99.90
33994;DHT22;20673;48.980;8.138;2023-05-07T05:36:11;13.90;99.90
33994;DHT22;20673;48.980;8.138;2023-05-07T05:38:39;14.00;99.90
33994;DHT22;20673;48.980;8.138;2023-05-07T05:41:05;14.20;99.90
33994;DHT22;20673;48.980;8.138;2023-05-07T05:43:32;14.30;99.90
33994;DHT22;20673;48.980;8.138;2023-05-07T05:45:58;14.50;99.90
33994;DHT22;20673;48.980;8.138;2023-05-07T05:48:24;14.60;99.90
33994;DHT22;20673;48.980;8.138;2023-05-07T05:50:50;14.60;99.90
33994;DHT22;20673;48.980;8.138;2023-05-07T05:53:17;14.70;99.90
33994;DHT22;20673;48.980;8.138;2023-05-07T05:55:43;14.80;99.90
33994;DHT22;20673;48.980;8.138;2023-05-07T05:58:10;14.80;99.90
33994;DHT22;20673;48.980;8.138;2023-05-07T06:00:36;14.90;99.90
33994;DHT22;20673;48.980;8.138;2023-05-07T06:03:02;15.00;99.90
33994;DHT22;20673;48.980;8.138;2023-05-07T06:05:29;15.10;99.90
33994;DHT22;20673;48.980;8.138;2023-05-07T06:07:55;15.20;99.90
33994;DHT22;20673;48.980;8.138;2023-05-07T06:10:21;15.20;99.90
33994;DHT22;20673;48.980;8.138;2023-05-07T06:12:48;15.30;99.90
33994;DHT22;20673;48.980;8.138;2023-05-07T06:15:14;15.30;99.90
33994;DHT22;20673;48.980;8.138;2023-05-07T06:17:40;15.40;99.90
33994;DHT22;20673;48.980;8.138;2023-05-07T06:20:07;15.50;99.90
33994;DHT22;20673;48.980;8.138;2023-05-07T06:22:34;15.50;99.90
33994;DHT22;20673;48.980;8.138;2023-05-07T06:25:00;15.60;99.90
33994;DHT22;20673;48.980;8.138;2023-05-07T06:27:26;15.60;99.90
33994;DHT22;20673;48.980;8.138;2023-05-07T06:29:53;15.70;99.90
33994;DHT22;20673;48.980;8.138;2023-05-07T06:32:20;15.70;99.90
33994;DHT22;20673;48.980;8.138;2023-05-07T06:34:46;15.80;99.90
33994;DHT22;20673;48.980;8.138;2023-05-07T06:37:12;15.90;99.90
33994;DHT22;20673;48.980;8.138;2023-05-07T06:39:38;15.80;99.90
33994;DHT22;20673;48.980;8.138;2023-05-07T06:42:04;15.80;99.90
33994;DHT22;20673;48.980;8.138;2023-05-07T06:44:31;16.00;99.90
33994;DHT22;20673;48.980;8.138;2023-05-07T06:46:57;16.10;99.90
33994;DHT22;20673;48.980;8.138;2023-05-07T06:49:24;16.10;99.90
33994;DHT22;20673;48.980;8.138;2023-05-07T06:51:50;16.20;99.90
33994;DHT22;20673;48.980;8.138;2023-05-07T06:54:16;16.30;99.90
33994;DHT22;20673;48.980;8.138;2023-05-07T06:56:42;16.40;99.90
33994;DHT22;20673;48.980;8.138;2023-05-07T06:59:09;16.60;99.90
33994;DHT22;20673;48.980;8.138;2023-05-07T07:01:35;16.70;99.90
33994;DHT22;20673;48.980;8.138;2023-05-07T07:04:01;16.70;99.90
33994;DHT22;20673;48.980;8.138;2023-05-07T07:06:27;16.80;99.90
33994;DHT22;20673;48.980;8.138;2023-05-07T07:08:54;16.90;99.90
33994;DHT22;20673;48.980;8.138;2023-05-07T07:11:20;17.00;99.90
33994;DHT22;20673;48.980;8.138;2023-05-07T07:13:46;17.10;99.90
33994;DHT22;20673;48.980;8.138;2023-05-07T07:16:12;17.00;99.90
33994;DHT22;20673;48.980;8.138;2023-05-07T07:18:38;17.00;99.90
33994;DHT22;20673;48.980;8.138;2023-05-07T07:21:05;16.90;99.90
33994;DHT22;20673;48.980;8.138;2023-05-07T07:23:32;16.90;99.90
33994;DHT22;20673;48.980;8.138;2023-05-07T07:25:58;17.10;99.90
33994;DHT22;20673;48.980;8.138;2023-05-07T07:28:24;17.20;99.90
33994;DHT22;20673;48.980;8.138;2023-05-07T07:30:51;17.20;99.90
33994;DHT22;20673;48.980;8.138;2023-05-07T07:33:17;17.30;99.90
33994;DHT22;20673;48.980;8.138;2023-05-07T07:35:43;17.30;99.90
33994;DHT22;20673;48.980;8.138;2023-05-07T07:38:09;17.60;99.90
33994;DHT22;20673;48.980;8.138;2023-05-07T07:40:36;17.70;99.90
33994;DHT22;20673;48.980;8.138;2023-05-07T07:43:02;18.00;99.90
33994;DHT22;20673;48.980;8.138;2023-05-07T07:45:29;18.20;99.90
33994;DHT22;20673;48.980;8.138;2023-05-07T07:47:55;18.30;99.90
33994;DHT22;20673;48.980;8.138;2023-05-07T07:50:21;18.70;99.90
33994;DHT22;20673;48.980;8.138;2023-05-07T07:52:48;19.00;99.90
33994;DHT22;20673;48.980;8.138;2023-05-07T07:55:14;19.20;99.90
33994;DHT22;20673;48.980;8.138;2023-05-07T07:57:42;19.30;99.90
33994;DHT22;20673;48.980;8.138;2023-05-07T08:00:09;19.60;99.90
33994;DHT22;20673;48.980;8.138;2023-05-07T08:02:36;19.80;99.90
33994;DHT22;20673;48.980;8.138;2023-05-07T08:05:02;19.60;99.90
33994;DHT22;20673;48.980;8.138;2023-05-07T08:07:29;19.30;99.90
33994;DHT22;20673;48.980;8.138;2023-05-07T08:09:56;19.20;99.90
33994;DHT22;20673;48.980;8.138;2023-05-07T08:12:22;19.40;99.90
33994;DHT22;20673;48.980;8.138;2023-05-07T08:14:48;19.40;99.90
33994;DHT22;20673;48.980;8.138;2023-05-07T08:17:14;19.30;99.90
33994;DHT22;20673;48.980;8.138;2023-05-07T08:19:42;19.30;99.90
33994;DHT22;20673;48.980;8.138;2023-05-07T08:22:09;19.30;99.90
33994;DHT22;20673;48.980;8.138;2023-05-07T08:24:36;19.30;99.90
33994;DHT22;20673;48.980;8.138;2023-05-07T08:27:02;19.60;99.90
33994;DHT22;20673;48.980;8.138;2023-05-07T08:29:29;20.00;99.90
33994;DHT22;20673;48.980;8.138;2023-05-07T08:31:55;20.00;99.90
33994;DHT22;20673;48.980;8.138;2023-05-07T08:34:22;20.10;99.90
33994;DHT22;20673;48.980;8.138;2023-05-07T08:36:48;20.30;99.90
33994;DHT22;20673;48.980;8.138;2023-05-07T08:39:17;20.80;99.90
33994;DHT22;20673;48.980;8.138;2023-05-07T08:41:48;20.90;99.90
33994;DHT22;20673;48.980;8.138;2023-05-07T08:44:17;20.90;99.90
33994;DHT22;20673;48.980;8.138;2023-05-07T08:46:47;20.90;99.90
33994;DHT22;20673;48.980;8.138;2023-05-07T08:49:17;20.80;99.90
33994;DHT22;20673;48.980;8.138;2023-05-07T08:51:43;21.10;99.90
33994;DHT22;20673;48.980;8.138;2023-05-07T08:54:10;21.40;99.90
33994;DHT22;20673;48.980;8.138;2023-05-07T08:56:37;21.10;99.90
33994;DHT22;20673;48.980;8.138;2023-05-07T08:59:05;21.30;99.90
33994;DHT22;20673;48.980;8.138;2023-05-07T09:01:31;21.40;99.90
33994;DHT22;20673;48.980;8.138;2023-05-07T09:04:00;21.40;99.90
33994;DHT22;20673;48.980;8.138;2023-05-07T09:06:26;21.60;99.90
33994;DHT22;20673;48.980;8.138;2023-05-07T09:08:54;21.40;99.90
33994;DHT22;20673;48.980;8.138;2023-05-07T09:11:21;21.40;99.90
33994;DHT22;20673;48.980;8.138;2023-05-07T09:13:58;21.50;99.90
33994;DHT22;20673;48.980;8.138;2023-05-07T09:16:22;21.90;99.90
33994;DHT22;20673;48.980;8.138;2023-05-07T09:18:53;22.10;99.90
33994;DHT22;20673;48.980;8.138;2023-05-07T09:21:21;22.20;99.90
33994;DHT22;20673;48.980;8.138;2023-05-07T09:23:50;22.50;99.90
33994;DHT22;20673;48.980;8.138;2023-05-07T09:26:17;22.60;99.90
33994;DHT22;20673;48.980;8.138;2023-05-07T09:28:44;22.80;99.90
33994;DHT22;20673;48.980;8.138;2023-05-07T09:31:12;23.20;99.90
33994;DHT22;20673;48.980;8.138;2023-05-07T09:33:39;23.40;99.90
33994;DHT22;20673;48.980;8.138;2023-05-07T09:36:07;23.10;99.90
33994;DHT22;20673;48.980;8.138;2023-05-07T09:38:35;23.00;99.90
33994;DHT22;20673;48.980;8.138;2023-05-07T09:41:11;23.40;99.90
33994;DHT22;20673;48.980;8.138;2023-05-07T09:43:39;23.50;99.90
33994;DHT22;20673;48.980;8.138;2023-05-07T09:46:13;23.80;99.90
33994;DHT22;20673;48.980;8.138;2023-05-07T09:48:42;23.70;99.90
33994;DHT22;20673;48.980;8.138;2023-05-07T09:51:30;23.40;99.90
33994;DHT22;20673;48.980;8.138;2023-05-07T09:54:11;23.30;99.90
33994;DHT22;20673;48.980;8.138;2023-05-07T09:56:39;23.50;99.90
33994;DHT22;20673;48.980;8.138;2023-05-07T09:59:08;23.70;99.90
33994;DHT22;20673;48.980;8.138;2023-05-07T10:01:41;24.30;99.90
33994;DHT22;20673;48.980;8.138;2023-05-07T10:04:09;24.60;99.90
33994;DHT22;20673;48.980;8.138;2023-05-07T10:06:37;24.80;99.90
33994;DHT22;20673;48.980;8.138;2023-05-07T10:09:04;24.60;99.90
33994;DHT22;20673;48.980;8.138;2023-05-07T10:11:34;24.50;99.90
33994;DHT22;20673;48.980;8.138;2023-05-07T10:14:02;24.60;99.90
33994;DHT22;20673;48.980;8.138;2023-05-07T10:16:32;24.70;99.90
33994;DHT22;20673;48.980;8.138;2023-05-07T10:19:03;24.70;99.90
33994;DHT22;20673;48.980;8.138;2023-05-07T10:21:30;24.90;99.90
33994;DHT22;20673;48.980;8.138;2023-05-07T10:24:19;24.80;99.90
33994;DHT22;20673;48.980;8.138;2023-05-07T10:26:45;25.20;99.90
33994;DHT22;20673;48.980;8.138;2023-05-07T10:35:06;25.00;99.90
33994;DHT22;20673;48.980;8.138;2023-05-07T10:37:36;25.10;99.90
33994;DHT22;20673;48.980;8.138;2023-05-07T10:40:03;25.30;99.90
33994;DHT22;20673;48.980;8.138;2023-05-07T10:42:30;25.30;99.90
33994;DHT22;20673;48.980;8.138;2023-05-07T10:44:56;25.20;99.90
33994;DHT22;20673;48.980;8.138;2023-05-07T10:47:23;25.00;99.90
33994;DHT22;20673;48.980;8.138;2023-05-07T10:52:33;25.60;99.90
33994;DHT22;20673;48.980;8.138;2023-05-07T10:57:47;25.60;99.90
33994;DHT22;20673;48.980;8.138;2023-05-07T11:03:06;26.00;99.90
33994;DHT22;20673;48.980;8.138;2023-05-07T11:05:33;25.90;99.90
33994;DHT22;20673;48.980;8.138;2023-05-07T11:08:01;26.20;99.90
33994;DHT22;20673;48.980;8.138;2023-05-07T11:13:43;27.10;99.90
33994;DHT22;20673;48.980;8.138;2023-05-07T11:16:22;27.30;99.90
33994;DHT22;20673;48.980;8.138;2023-05-07T11:18:51;26.80;99.90
33994;DHT22;20673;48.980;8.138;2023-05-07T11:21:39;27.10;99.90
33994;DHT22;20673;48.980;8.138;2023-05-07T11:24:10;27.30;99.90
33994;DHT22;20673;48.980;8.138;2023-05-07T11:26:48;27.20;99.90
33994;DHT22;20673;48.980;8.138;2023-05-07T11:29:20;28.10;99.90
33994;DHT22;20673;48.980;8.138;2023-05-07T11:31:51;28.30;99.90
33994;DHT22;20673;48.980;8.138;2023-05-07T11:34:22;27.70;99.90
33994;DHT22;20673;48.980;8.138;2023-05-07T11:36:49;27.90;99.90
33994;DHT22;20673;48.980;8.138;2023-05-07T11:39:32;28.10;99.90
33994;DHT22;20673;48.980;8.138;2023-05-07T11:41:59;27.90;99.90
33994;DHT22;20673;48.980;8.138;2023-05-07T11:44:44;27.90;99.90
33994;DHT22;20673;48.980;8.138;2023-05-07T11:47:19;27.60;99.90
33994;DHT22;20673;48.980;8.138;2023-05-07T11:49:48;27.60;99.90
33994;DHT22;20673;48.980;8.138;2023-05-07T11:52:17;27.70;99.90
33994;DHT22;20673;48.980;8.138;2023-05-07T11:54:55;28.00;99.90
33994;DHT22;20673;48.980;8.138;2023-05-07T11:57:23;27.60;99.90
33994;DHT22;20673;48.980;8.138;2023-05-07T11:59:57;27.10;99.90
33994;DHT22;20673;48.980;8.138;2023-05-07T12:02:24;27.30;99.90
33994;DHT22;20673;48.980;8.138;2023-05-07T12:04:52;27.30;99.90
33994;DHT22;20673;48.980;8.138;2023-05-07T12:07:18;26.60;99.90
33994;DHT22;20673;48.980;8.138;2023-05-07T12:09:45;26.60;99.90
33994;DHT22;20673;48.980;8.138;2023-05-07T12:12:13;26.20;99.90
33994;DHT22;20673;48.980;8.138;2023-05-07T12:14:45;26.10;99.90
33994;DHT22;20673;48.980;8.138;2023-05-07T12:17:13;25.70;99.90
33994;DHT22;20673;48.980;8.138;2023-05-07T12:19:42;25.50;99.90
33994;DHT22;20673;48.980;8.138;2023-05-07T12:22:10;25.50;99.90
33994;DHT22;20673;48.980;8.138;2023-05-07T12:24:46;25.20;99.90
33994;DHT22;20673;48.980;8.138;2023-05-07T12:27:15;25.30;99.90
33994;DHT22;20673;48.980;8.138;2023-05-07T12:29:48;25.20;99.90
33994;DHT22;20673;48.980;8.138;2023-05-07T12:32:17;25.20;99.90
33994;DHT22;20673;48.980;8.138;2023-05-07T12:34:45;25.20;99.90
33994;DHT22;20673;48.980;8.138;2023-05-07T12:37:12;25.20;99.90
33994;DHT22;20673;48.980;8.138;2023-05-07T12:39:50;25.50;99.90
33994;DHT22;20673;48.980;8.138;2023-05-07T12:42:35;25.70;99.90
33994;DHT22;20673;48.980;8.138;2023-05-07T12:45:15;26.00;99.90
33994;DHT22;20673;48.980;8.138;2023-05-07T12:47:45;26.00;99.90
33994;DHT22;20673;48.980;8.138;2023-05-07T12:50:17;25.80;99.90
33994;DHT22;20673;48.980;8.138;2023-05-07T12:52:45;25.50;99.90
33994;DHT22;20673;48.980;8.138;2023-05-07T12:55:16;25.40;99.90
33994;DHT22;20673;48.980;8.138;2023-05-07T12:57:48;25.30;99.90
33994;DHT22;20673;48.980;8.138;2023-05-07T13:00:16;25.10;99.90
33994;DHT22;20673;48.980;8.138;2023-05-07T13:02:44;25.10;99.90
33994;DHT22;20673;48.980;8.138;2023-05-07T13:05:11;25.20;99.90
33994;DHT22;20673;48.980;8.138;2023-05-07T13:07:37;25.20;99.90
33994;DHT22;20673;48.980;8.138;2023-05-07T13:10:04;25.20;99.90
33994;DHT22;20673;48.980;8.138;2023-05-07T13:12:31;25.20;99.90
33994;DHT22;20673;48.980;8.138;2023-05-07T13:14:58;25.50;99.90
33994;DHT22;20673;48.980;8.138;2023-05-07T13:17:24;25.70;99.90
33994;DHT22;20673;48.980;8.138;2023-05-07T13:19:50;26.10;99.90
33994;DHT22;20673;48.980;8.138;2023-05-07T13:22:16;26.10;99.90
33994;DHT22;20673;48.980;8.138;2023-05-07T13:24:42;26.20;99.90
33994;DHT22;20673;48.980;8.138;2023-05-07T13:27:09;26.40;99.90
33994;DHT22;20673;48.980;8.138;2023-05-07T13:29:35;26.40;99.90
33994;DHT22;20673;48.980;8.138;2023-05-07T13:32:01;26.20;99.90
33994;DHT22;20673;48.980;8.138;2023-05-07T13:34:28;25.90;99.90
33994;DHT22;20673;48.980;8.138;2023-05-07T13:36:54;25.90;99.90
33994;DHT22;20673;48.980;8.138;2023-05-07T13:39:21;25.90;99.90
33994;DHT22;20673;48.980;8.138;2023-05-07T13:41:47;25.70;99.90
33994;DHT22;20673;48.980;8.138;2023-05-07T13:44:13;25.50;99.90
33994;DHT22;20673;48.980;8.138;2023-05-07T13:46:40;25.10;99.90
33994;DHT22;20673;48.980;8.138;2023-05-07T13:49:06;24.70;99.90
33994;DHT22;20673;48.980;8.138;2023-05-07T13:51:32;24.30;99.90
33994;DHT22;20673;48.980;8.138;2023-05-07T13:53:58;23.90;99.90
33994;DHT22;20673;48.980;8.138;2023-05-07T13:56:25;23.80;99.90
33994;DHT22;20673;48.980;8.138;2023-05-07T13:58:51;23.60;99.90
33994;DHT22;20673;48.980;8.138;2023-05-07T14:01:17;23.50;99.90
33994;DHT22;20673;48.980;8.138;2023-05-07T14:03:43;23.30;99.90
33994;DHT22;20673;48.980;8.138;2023-05-07T14:06:10;22.90;99.90
33994;DHT22;20673;48.980;8.138;2023-05-07T14:08:36;22.60;99.90
33994;DHT22;20673;48.980;8.138;2023-05-07T14:11:02;22.20;99.90
33994;DHT22;20673;48.980;8.138;2023-05-07T14:13:28;21.90;99.90
33994;DHT22;20673;48.980;8.138;2023-05-07T14:15:56;21.70;99.90
33994;DHT22;20673;48.980;8.138;2023-05-07T14:18:23;21.60;99.90
33994;DHT22;20673;48.980;8.138;2023-05-07T14:20:49;21.50;99.90
33994;DHT22;20673;48.980;8.138;2023-05-07T14:23:16;21.40;99.90
33994;DHT22;20673;48.980;8.138;2023-05-07T14:25:43;21.20;99.90
33994;DHT22;20673;48.980;8.138;2023-05-07T14:28:09;21.10;99.90
33994;DHT22;20673;48.980;8.138;2023-05-07T14:30:35;21.00;99.90
33994;DHT22;20673;48.980;8.138;2023-05-07T14:33:02;20.90;99.90
33994;DHT22;20673;48.980;8.138;2023-05-07T14:35:28;20.60;99.90
33994;DHT22;20673;48.980;8.138;2023-05-07T14:37:54;20.40;99.90
33994;DHT22;20673;48.980;8.138;2023-05-07T14:40:21;20.30;99.90
33994;DHT22;20673;48.980;8.138;2023-05-07T14:42:47;20.00;99.90
33994;DHT22;20673;48.980;8.138;2023-05-07T14:45:13;19.90;99.90
33994;DHT22;20673;48.980;8.138;2023-05-07T14:47:39;19.80;99.90
33994;DHT22;20673;48.980;8.138;2023-05-07T14:50:06;19.90;99.90
33994;DHT22;20673;48.980;8.138;2023-05-07T14:52:32;20.10;99.90
33994;DHT22;20673;48.980;8.138;2023-05-07T14:54:58;20.20;99.90
33994;DHT22;20673;48.980;8.138;2023-05-07T14:57:24;20.40;99.90
33994;DHT22;20673;48.980;8.138;2023-05-07T14:59:51;20.50;99.90
33994;DHT22;20673;48.980;8.138;2023-05-07T15:02:17;20.60;99.90
33994;DHT22;20673;48.980;8.138;2023-05-07T15:04:44;20.70;99.90
33994;DHT22;20673;48.980;8.138;2023-05-07T15:07:14;20.80;99.90
33994;DHT22;20673;48.980;8.138;2023-05-07T15:09:42;20.80;99.90
33994;DHT22;20673;48.980;8.138;2023-05-07T15:12:08;20.90;99.90
33994;DHT22;20673;48.980;8.138;2023-05-07T15:14:35;20.90;99.90
33994;DHT22;20673;48.980;8.138;2023-05-07T15:17:01;20.80;99.90
33994;DHT22;20673;48.980;8.138;2023-05-07T15:19:27;20.80;99.90
33994;DHT22;20673;48.980;8.138;2023-05-07T15:21:56;20.90;99.90
33994;DHT22;20673;48.980;8.138;2023-05-07T15:24:23;21.00;99.90
33994;DHT22;20673;48.980;8.138;2023-05-07T15:26:52;20.90;99.90
33994;DHT22;20673;48.980;8.138;2023-05-07T15:29:18;20.80;99.90
33994;DHT22;20673;48.980;8.138;2023-05-07T15:31:44;20.70;99.90
33994;DHT22;20673;48.980;8.138;2023-05-07T15:34:11;20.60;99.90
33994;DHT22;20673;48.980;8.138;2023-05-07T15:36:37;20.50;99.90
33994;DHT22;20673;48.980;8.138;2023-05-07T15:39:04;20.50;99.90
33994;DHT22;20673;48.980;8.138;2023-05-07T15:41:30;20.40;99.90
33994;DHT22;20673;48.980;8.138;2023-05-07T15:43:56;20.30;99.90
33994;DHT22;20673;48.980;8.138;2023-05-07T15:46:24;20.30;99.90
33994;DHT22;20673;48.980;8.138;2023-05-07T15:48:51;20.20;99.90